sensor_id;sensor_type;location;lat;lon;timestamp;P1;durP1;ratioP1;P2;durP2;ratioP2
75550;SDS011;65071;53.082;18.218;2022-12-20T00:00:08;20.60;;;9.10;;
75550;SDS011;65071;53.082;18.218;2022-12-20T00:02:55;21.10;;;9.40;;
75550;SDS011;65071;53.082;18.218;2022-12-20T00:05:22;20.40;;;9.80;;
75550;SDS011;65071;53.082;18.218;2022-12-20T00:07:49;18.50;;;7.70;;
75550;SDS011;65071;53.082;18.218;2022-12-20T00:10:15;23.30;;;9.70;;
75550;SDS011;65071;53.082;18.218;2022-12-20T00:12:42;23.30;;;10.30;;
75550;SDS011;65071;53.082;18.218;2022-12-20T00:15:08;15.60;;;7.50;;
75550;SDS011;65071;53.082;18.218;2022-12-20T00:17:35;17.70;;;7.40;;
75550;SDS011;65071;53.082;18.218;2022-12-20T00:20:02;16.70;;;6.60;;
75550;SDS011;65071;53.082;18.218;2022-12-20T00:22:29;20.50;;;8.80;;
75550;SDS011;65071;53.082;18.218;2022-12-20T00:24:56;21.30;;;10.10;;
75550;SDS011;65071;53.082;18.218;2022-12-20T00:27:22;24.90;;;10.00;;
75550;SDS011;65071;53.082;18.218;2022-12-20T00:29:49;24.60;;;9.60;;
75550;SDS011;65071;53.082;18.218;2022-12-20T00:32:15;20.30;;;9.30;;
75550;SDS011;65071;53.082;18.218;2022-12-20T00:34:42;18.80;;;7.70;;
75550;SDS011;65071;53.082;18.218;2022-12-20T00:37:08;19.90;;;8.50;;
75550;SDS011;65071;53.082;18.218;2022-12-20T00:39:35;25.30;;;10.50;;
75550;SDS011;65071;53.082;18.218;2022-12-20T00:42:02;22.70;;;9.60;;
75550;SDS011;65071;53.082;18.218;2022-12-20T00:44:29;13.70;;;6.20;;
75550;SDS011;65071;53.082;18.218;2022-12-20T00:46:55;22.80;;;9.80;;
75550;SDS011;65071;53.082;18.218;2022-12-20T00:49:22;17.20;;;6.60;;
75550;SDS011;65071;53.082;18.218;2022-12-20T00:51:48;21.10;;;8.80;;
75550;SDS011;65071;53.082;18.218;2022-12-20T00:54:15;27.40;;;10.70;;
75550;SDS011;65071;53.082;18.218;2022-12-20T00:56:41;22.60;;;10.90;;
75550;SDS011;65071;53.082;18.218;2022-12-20T00:59:08;22.30;;;9.20;;
75550;SDS011;65071;53.082;18.218;2022-12-20T01:01:34;17.60;;;8.20;;
75550;SDS011;65071;53.082;18.218;2022-12-20T01:04:01;20.70;;;9.20;;
75550;SDS011;65071;53.082;18.218;2022-12-20T01:06:29;18.70;;;8.30;;
75550;SDS011;65071;53.082;18.218;2022-12-20T01:08:56;25.60;;;10.00;;
75550;SDS011;65071;53.082;18.218;2022-12-20T01:11:31;21.00;;;9.30;;
75550;SDS011;65071;53.082;18.218;2022-12-20T01:14:01;24.20;;;9.70;;
75550;SDS011;65071;53.082;18.218;2022-12-20T01:16:37;18.70;;;8.50;;
75550;SDS011;65071;53.082;18.218;2022-12-20T01:19:05;10.70;;;5.30;;
75550;SDS011;65071;53.082;18.218;2022-12-20T01:21:33;26.10;;;10.60;;
75550;SDS011;65071;53.082;18.218;2022-12-20T01:24:00;24.90;;;10.20;;
75550;SDS011;65071;53.082;18.218;2022-12-20T01:26:27;24.80;;;9.90;;
75550;SDS011;65071;53.082;18.218;2022-12-20T01:28:56;25.80;;;10.60;;
75550;SDS011;65071;53.082;18.218;2022-12-20T01:31:25;21.70;;;9.50;;
75550;SDS011;65071;53.082;18.218;2022-12-20T01:33:53;25.20;;;10.40;;
75550;SDS011;65071;53.082;18.218;2022-12-20T01:36:21;23.70;;;9.40;;
75550;SDS011;65071;53.082;18.218;2022-12-20T01:39:03;23.30;;;10.10;;
75550;SDS011;65071;53.082;18.218;2022-12-20T01:41:31;23.50;;;9.60;;
75550;SDS011;65071;53.082;18.218;2022-12-20T01:44:00;21.60;;;9.40;;
75550;SDS011;65071;53.082;18.218;2022-12-20T01:46:31;16.80;;;7.40;;
75550;SDS011;65071;53.082;18.218;2022-12-20T01:49:01;25.60;;;10.30;;
75550;SDS011;65071;53.082;18.218;2022-12-20T01:51:31;22.90;;;9.40;;
75550;SDS011;65071;53.082;18.218;2022-12-20T01:54:07;16.90;;;7.30;;
75550;SDS011;65071;53.082;18.218;2022-12-20T01:56:39;22.10;;;9.10;;
75550;SDS011;65071;53.082;18.218;2022-12-20T01:59:07;18.80;;;8.40;;
75550;SDS011;65071;53.082;18.218;2022-12-20T02:01:34;27.00;;;10.70;;
75550;SDS011;65071;53.082;18.218;2022-12-20T02:04:01;20.40;;;8.90;;
75550;SDS011;65071;53.082;18.218;2022-12-20T02:06:28;17.30;;;8.10;;
75550;SDS011;65071;53.082;18.218;2022-12-20T02:08:56;22.50;;;9.00;;
75550;SDS011;65071;53.082;18.218;2022-12-20T02:11:36;18.60;;;7.90;;
75550;SDS011;65071;53.082;18.218;2022-12-20T02:14:25;18.90;;;8.30;;
75550;SDS011;65071;53.082;18.218;2022-12-20T02:31:39;25.80;;;9.40;;
75550;SDS011;65071;53.082;18.218;2022-12-20T02:34:11;21.40;;;9.20;;
75550;SDS011;65071;53.082;18.218;2022-12-20T02:36:38;21.20;;;8.20;;
75550;SDS011;65071;53.082;18.218;2022-12-20T02:39:05;19.70;;;9.40;;
75550;SDS011;65071;53.082;18.218;2022-12-20T02:41:33;14.80;;;6.40;;
75550;SDS011;65071;53.082;18.218;2022-12-20T02:44:06;27.60;;;9.80;;
75550;SDS011;65071;53.082;18.218;2022-12-20T02:46:55;19.40;;;8.90;;
75550;SDS011;65071;53.082;18.218;2022-12-20T02:49:28;23.20;;;8.80;;
75550;SDS011;65071;53.082;18.218;2022-12-20T02:51:57;15.40;;;7.20;;
75550;SDS011;65071;53.082;18.218;2022-12-20T02:54:26;15.30;;;7.00;;
75550;SDS011;65071;53.082;18.218;2022-12-20T02:56:55;19.60;;;9.00;;
75550;SDS011;65071;53.082;18.218;2022-12-20T02:59:48;16.20;;;7.70;;
75550;SDS011;65071;53.082;18.218;2022-12-20T03:02:22;20.40;;;8.90;;
75550;SDS011;65071;53.082;18.218;2022-12-20T03:04:50;18.40;;;7.70;;
75550;SDS011;65071;53.082;18.218;2022-12-20T03:07:18;17.80;;;8.60;;
75550;SDS011;65071;53.082;18.218;2022-12-20T03:09:45;13.60;;;6.40;;
75550;SDS011;65071;53.082;18.218;2022-12-20T03:12:13;22.50;;;9.20;;
75550;SDS011;65071;53.082;18.218;2022-12-20T03:14:41;16.50;;;6.60;;
75550;SDS011;65071;53.082;18.218;2022-12-20T03:17:09;19.80;;;8.00;;
75550;SDS011;65071;53.082;18.218;2022-12-20T03:19:37;17.60;;;8.00;;
75550;SDS011;65071;53.082;18.218;2022-12-20T03:22:05;18.20;;;8.70;;
75550;SDS011;65071;53.082;18.218;2022-12-20T03:24:32;15.60;;;7.10;;
75550;SDS011;65071;53.082;18.218;2022-12-20T03:26:58;23.20;;;9.20;;
75550;SDS011;65071;53.082;18.218;2022-12-20T03:29:25;17.90;;;8.30;;
75550;SDS011;65071;53.082;18.218;2022-12-20T03:31:52;20.00;;;8.60;;
75550;SDS011;65071;53.082;18.218;2022-12-20T03:34:19;16.80;;;6.90;;
75550;SDS011;65071;53.082;18.218;2022-12-20T03:36:45;25.00;;;10.10;;
75550;SDS011;65071;53.082;18.218;2022-12-20T03:39:12;18.80;;;8.40;;
75550;SDS011;65071;53.082;18.218;2022-12-20T03:41:40;20.10;;;9.20;;
75550;SDS011;65071;53.082;18.218;2022-12-20T03:44:07;19.60;;;8.50;;
75550;SDS011;65071;53.082;18.218;2022-12-20T03:46:34;17.90;;;8.40;;
75550;SDS011;65071;53.082;18.218;2022-12-20T03:49:01;20.80;;;9.10;;
75550;SDS011;65071;53.082;18.218;2022-12-20T03:51:28;17.50;;;8.10;;
75550;SDS011;65071;53.082;18.218;2022-12-20T03:53:55;15.90;;;7.30;;
75550;SDS011;65071;53.082;18.218;2022-12-20T03:56:24;20.00;;;9.20;;
75550;SDS011;65071;53.082;18.218;2022-12-20T03:58:51;18.30;;;7.90;;
75550;SDS011;65071;53.082;18.218;2022-12-20T04:03:45;18.90;;;8.90;;
75550;SDS011;65071;53.082;18.218;2022-12-20T04:06:12;16.50;;;7.10;;
75550;SDS011;65071;53.082;18.218;2022-12-20T04:08:39;18.20;;;8.40;;
75550;SDS011;65071;53.082;18.218;2022-12-20T04:11:06;15.80;;;7.80;;
75550;SDS011;65071;53.082;18.218;2022-12-20T04:14:14;18.00;;;7.90;;
75550;SDS011;65071;53.082;18.218;2022-12-20T04:16:41;18.50;;;8.50;;
75550;SDS011;65071;53.082;18.218;2022-12-20T04:19:08;16.40;;;7.40;;
75550;SDS011;65071;53.082;18.218;2022-12-20T04:21:41;20.00;;;8.80;;
75550;SDS011;65071;53.082;18.218;2022-12-20T04:24:08;19.10;;;7.90;;
75550;SDS011;65071;53.082;18.218;2022-12-20T04:27:02;16.00;;;7.00;;
75550;SDS011;65071;53.082;18.218;2022-12-20T04:29:29;22.80;;;9.40;;
75550;SDS011;65071;53.082;18.218;2022-12-20T04:31:55;20.50;;;9.20;;
75550;SDS011;65071;53.082;18.218;2022-12-20T04:34:22;16.10;;;7.80;;
75550;SDS011;65071;53.082;18.218;2022-12-20T04:36:48;15.20;;;7.20;;
75550;SDS011;65071;53.082;18.218;2022-12-20T04:39:22;16.60;;;7.70;;
75550;SDS011;65071;53.082;18.218;2022-12-20T04:42:08;18.80;;;8.40;;
75550;SDS011;65071;53.082;18.218;2022-12-20T04:44:34;17.20;;;6.70;;
75550;SDS011;65071;53.082;18.218;2022-12-20T04:47:02;18.10;;;7.40;;
75550;SDS011;65071;53.082;18.218;2022-12-20T04:49:29;15.00;;;6.30;;
75550;SDS011;65071;53.082;18.218;2022-12-20T04:51:55;19.70;;;8.80;;
75550;SDS011;65071;53.082;18.218;2022-12-20T04:54:42;17.00;;;7.20;;
75550;SDS011;65071;53.082;18.218;2022-12-20T04:57:15;13.70;;;6.20;;
75550;SDS011;65071;53.082;18.218;2022-12-20T04:59:41;18.30;;;7.70;;
75550;SDS011;65071;53.082;18.218;2022-12-20T05:02:09;18.00;;;8.70;;
75550;SDS011;65071;53.082;18.218;2022-12-20T05:04:56;21.70;;;9.00;;
75550;SDS011;65071;53.082;18.218;2022-12-20T05:07:23;17.90;;;7.30;;
75550;SDS011;65071;53.082;18.218;2022-12-20T05:09:52;18.50;;;7.90;;
75550;SDS011;65071;53.082;18.218;2022-12-20T05:12:18;14.20;;;6.20;;
75550;SDS011;65071;53.082;18.218;2022-12-20T05:14:45;18.50;;;8.30;;
75550;SDS011;65071;53.082;18.218;2022-12-20T05:17:12;15.10;;;6.40;;
75550;SDS011;65071;53.082;18.218;2022-12-20T05:19:39;16.70;;;8.40;;
75550;SDS011;65071;53.082;18.218;2022-12-20T05:22:06;20.10;;;8.90;;
75550;SDS011;65071;53.082;18.218;2022-12-20T05:25:03;21.90;;;8.20;;
75550;SDS011;65071;53.082;18.218;2022-12-20T05:27:49;19.30;;;8.30;;
75550;SDS011;65071;53.082;18.218;2022-12-20T05:30:16;14.80;;;7.20;;
75550;SDS011;65071;53.082;18.218;2022-12-20T05:32:43;18.50;;;8.10;;
75550;SDS011;65071;53.082;18.218;2022-12-20T05:35:09;13.40;;;5.70;;
75550;SDS011;65071;53.082;18.218;2022-12-20T05:37:36;19.60;;;7.80;;
75550;SDS011;65071;53.082;18.218;2022-12-20T05:40:10;15.60;;;7.10;;
75550;SDS011;65071;53.082;18.218;2022-12-20T05:42:37;19.50;;;8.40;;
75550;SDS011;65071;53.082;18.218;2022-12-20T05:45:04;15.30;;;7.40;;
75550;SDS011;65071;53.082;18.218;2022-12-20T05:47:35;18.60;;;8.00;;
75550;SDS011;65071;53.082;18.218;2022-12-20T05:50:06;18.80;;;8.50;;
75550;SDS011;65071;53.082;18.218;2022-12-20T05:52:36;18.00;;;8.00;;
75550;SDS011;65071;53.082;18.218;2022-12-20T05:55:03;18.70;;;7.90;;
75550;SDS011;65071;53.082;18.218;2022-12-20T05:57:30;18.00;;;8.30;;
75550;SDS011;65071;53.082;18.218;2022-12-20T05:59:56;15.50;;;6.70;;
75550;SDS011;65071;53.082;18.218;2022-12-20T06:02:23;18.10;;;8.30;;
75550;SDS011;65071;53.082;18.218;2022-12-20T06:04:57;13.20;;;6.20;;
75550;SDS011;65071;53.082;18.218;2022-12-20T06:07:25;14.50;;;6.30;;
75550;SDS011;65071;53.082;18.218;2022-12-20T06:09:56;13.80;;;5.60;;
75550;SDS011;65071;53.082;18.218;2022-12-20T06:12:33;14.00;;;6.60;;
75550;SDS011;65071;53.082;18.218;2022-12-20T06:15:00;14.30;;;6.30;;
75550;SDS011;65071;53.082;18.218;2022-12-20T06:17:28;14.80;;;7.70;;
75550;SDS011;65071;53.082;18.218;2022-12-20T06:19:55;13.90;;;5.40;;
75550;SDS011;65071;53.082;18.218;2022-12-20T06:22:22;14.50;;;6.90;;
75550;SDS011;65071;53.082;18.218;2022-12-20T06:24:52;12.20;;;5.80;;
75550;SDS011;65071;53.082;18.218;2022-12-20T06:27:23;18.90;;;8.70;;
75550;SDS011;65071;53.082;18.218;2022-12-20T06:32:33;12.20;;;5.40;;
75550;SDS011;65071;53.082;18.218;2022-12-20T06:35:00;12.20;;;5.60;;
75550;SDS011;65071;53.082;18.218;2022-12-20T06:37:27;16.70;;;6.90;;
75550;SDS011;65071;53.082;18.218;2022-12-20T06:39:54;15.20;;;7.20;;
75550;SDS011;65071;53.082;18.218;2022-12-20T06:42:22;19.30;;;8.50;;
75550;SDS011;65071;53.082;18.218;2022-12-20T06:44:50;19.20;;;7.70;;
75550;SDS011;65071;53.082;18.218;2022-12-20T06:47:16;21.40;;;9.10;;
75550;SDS011;65071;53.082;18.218;2022-12-20T06:49:43;22.20;;;9.70;;
75550;SDS011;65071;53.082;18.218;2022-12-20T06:52:19;21.80;;;10.60;;
75550;SDS011;65071;53.082;18.218;2022-12-20T06:54:49;23.50;;;11.90;;
75550;SDS011;65071;53.082;18.218;2022-12-20T06:57:15;18.10;;;9.30;;
75550;SDS011;65071;53.082;18.218;2022-12-20T06:59:45;18.90;;;9.50;;
75550;SDS011;65071;53.082;18.218;2022-12-20T07:02:12;17.30;;;8.40;;
75550;SDS011;65071;53.082;18.218;2022-12-20T07:04:38;9.10;;;4.50;;
75550;SDS011;65071;53.082;18.218;2022-12-20T07:07:05;14.00;;;6.80;;
75550;SDS011;65071;53.082;18.218;2022-12-20T07:09:32;17.40;;;8.40;;
75550;SDS011;65071;53.082;18.218;2022-12-20T07:11:59;14.00;;;6.70;;
75550;SDS011;65071;53.082;18.218;2022-12-20T07:14:26;15.40;;;7.40;;
75550;SDS011;65071;53.082;18.218;2022-12-20T07:16:52;14.30;;;7.10;;
75550;SDS011;65071;53.082;18.218;2022-12-20T07:19:20;18.90;;;8.30;;
75550;SDS011;65071;53.082;18.218;2022-12-20T07:21:47;16.00;;;6.30;;
75550;SDS011;65071;53.082;18.218;2022-12-20T07:24:13;16.00;;;6.50;;
75550;SDS011;65071;53.082;18.218;2022-12-20T07:26:40;15.20;;;6.60;;
75550;SDS011;65071;53.082;18.218;2022-12-20T07:29:10;19.30;;;9.20;;
75550;SDS011;65071;53.082;18.218;2022-12-20T07:31:37;17.90;;;8.80;;
75550;SDS011;65071;53.082;18.218;2022-12-20T07:34:04;16.20;;;7.00;;
75550;SDS011;65071;53.082;18.218;2022-12-20T07:36:30;16.70;;;7.40;;
75550;SDS011;65071;53.082;18.218;2022-12-20T07:38:57;14.30;;;7.10;;
75550;SDS011;65071;53.082;18.218;2022-12-20T07:41:24;17.70;;;7.60;;
75550;SDS011;65071;53.082;18.218;2022-12-20T07:43:50;15.90;;;7.30;;
75550;SDS011;65071;53.082;18.218;2022-12-20T07:46:17;18.50;;;8.30;;
75550;SDS011;65071;53.082;18.218;2022-12-20T07:48:44;14.90;;;7.60;;
75550;SDS011;65071;53.082;18.218;2022-12-20T07:51:13;22.50;;;9.60;;
75550;SDS011;65071;53.082;18.218;2022-12-20T07:53:47;11.40;;;6.10;;
75550;SDS011;65071;53.082;18.218;2022-12-20T07:56:17;18.70;;;8.70;;
75550;SDS011;65071;53.082;18.218;2022-12-20T07:58:46;14.40;;;7.60;;
75550;SDS011;65071;53.082;18.218;2022-12-20T08:01:14;10.90;;;5.80;;
75550;SDS011;65071;53.082;18.218;2022-12-20T08:03:43;14.00;;;6.00;;
75550;SDS011;65071;53.082;18.218;2022-12-20T08:06:12;17.90;;;8.80;;
75550;SDS011;65071;53.082;18.218;2022-12-20T08:08:41;16.40;;;7.30;;
75550;SDS011;65071;53.082;18.218;2022-12-20T08:11:13;22.10;;;10.20;;
75550;SDS011;65071;53.082;18.218;2022-12-20T08:13:40;19.60;;;8.90;;
75550;SDS011;65071;53.082;18.218;2022-12-20T08:16:07;15.30;;;7.40;;
75550;SDS011;65071;53.082;18.218;2022-12-20T08:18:34;16.80;;;8.30;;
75550;SDS011;65071;53.082;18.218;2022-12-20T08:21:00;16.50;;;7.70;;
75550;SDS011;65071;53.082;18.218;2022-12-20T08:23:27;18.10;;;8.80;;
75550;SDS011;65071;53.082;18.218;2022-12-20T08:25:54;21.40;;;8.90;;
75550;SDS011;65071;53.082;18.218;2022-12-20T08:28:20;14.40;;;6.60;;
75550;SDS011;65071;53.082;18.218;2022-12-20T08:30:47;15.70;;;7.30;;
75550;SDS011;65071;53.082;18.218;2022-12-20T08:33:13;18.30;;;9.40;;
75550;SDS011;65071;53.082;18.218;2022-12-20T08:35:40;22.30;;;9.90;;
75550;SDS011;65071;53.082;18.218;2022-12-20T08:38:07;20.20;;;9.00;;
75550;SDS011;65071;53.082;18.218;2022-12-20T08:40:33;19.50;;;8.90;;
75550;SDS011;65071;53.082;18.218;2022-12-20T08:43:00;17.70;;;7.80;;
75550;SDS011;65071;53.082;18.218;2022-12-20T08:45:26;19.90;;;9.30;;
75550;SDS011;65071;53.082;18.218;2022-12-20T08:47:54;27.80;;;10.90;;
75550;SDS011;65071;53.082;18.218;2022-12-20T08:50:20;19.60;;;8.20;;
75550;SDS011;65071;53.082;18.218;2022-12-20T08:52:47;17.50;;;8.80;;
75550;SDS011;65071;53.082;18.218;2022-12-20T08:55:13;15.70;;;7.60;;
75550;SDS011;65071;53.082;18.218;2022-12-20T08:57:40;19.30;;;9.10;;
75550;SDS011;65071;53.082;18.218;2022-12-20T09:00:07;21.60;;;9.20;;
75550;SDS011;65071;53.082;18.218;2022-12-20T09:02:34;17.60;;;8.10;;
75550;SDS011;65071;53.082;18.218;2022-12-20T09:05:01;21.60;;;9.70;;
75550;SDS011;65071;53.082;18.218;2022-12-20T09:07:27;15.80;;;7.80;;
75550;SDS011;65071;53.082;18.218;2022-12-20T09:09:54;16.10;;;7.40;;
75550;SDS011;65071;53.082;18.218;2022-12-20T09:12:21;15.40;;;7.80;;
75550;SDS011;65071;53.082;18.218;2022-12-20T09:14:47;15.20;;;7.20;;
75550;SDS011;65071;53.082;18.218;2022-12-20T09:17:14;18.50;;;8.30;;
75550;SDS011;65071;53.082;18.218;2022-12-20T09:19:40;17.20;;;7.80;;
75550;SDS011;65071;53.082;18.218;2022-12-20T09:22:07;15.30;;;6.60;;
75550;SDS011;65071;53.082;18.218;2022-12-20T09:24:33;17.00;;;8.20;;
75550;SDS011;65071;53.082;18.218;2022-12-20T09:27:00;19.40;;;8.20;;
75550;SDS011;65071;53.082;18.218;2022-12-20T09:29:27;17.60;;;8.70;;
75550;SDS011;65071;53.082;18.218;2022-12-20T09:31:53;17.20;;;8.40;;
75550;SDS011;65071;53.082;18.218;2022-12-20T09:34:20;14.10;;;7.40;;
75550;SDS011;65071;53.082;18.218;2022-12-20T09:36:46;20.90;;;9.10;;
75550;SDS011;65071;53.082;18.218;2022-12-20T09:39:13;19.00;;;9.10;;
75550;SDS011;65071;53.082;18.218;2022-12-20T09:41:40;14.30;;;7.60;;
75550;SDS011;65071;53.082;18.218;2022-12-20T09:44:19;16.40;;;8.00;;
75550;SDS011;65071;53.082;18.218;2022-12-20T09:47:14;18.80;;;8.40;;
75550;SDS011;65071;53.082;18.218;2022-12-20T09:49:48;19.10;;;8.40;;
75550;SDS011;65071;53.082;18.218;2022-12-20T09:52:29;19.50;;;8.90;;
75550;SDS011;65071;53.082;18.218;2022-12-20T10:00:43;15.70;;;7.60;;
75550;SDS011;65071;53.082;18.218;2022-12-20T10:03:12;19.90;;;8.80;;
75550;SDS011;65071;53.082;18.218;2022-12-20T10:05:49;19.40;;;8.80;;
75550;SDS011;65071;53.082;18.218;2022-12-20T10:16:49;14.80;;;7.60;;
75550;SDS011;65071;53.082;18.218;2022-12-20T10:22:09;18.70;;;8.60;;
75550;SDS011;65071;53.082;18.218;2022-12-20T10:24:40;19.30;;;8.80;;
75550;SDS011;65071;53.082;18.218;2022-12-20T10:27:14;15.50;;;7.70;;
75550;SDS011;65071;53.082;18.218;2022-12-20T10:29:44;13.90;;;6.60;;
75550;SDS011;65071;53.082;18.218;2022-12-20T10:32:13;15.10;;;7.20;;
75550;SDS011;65071;53.082;18.218;2022-12-20T10:37:16;16.40;;;7.70;;
75550;SDS011;65071;53.082;18.218;2022-12-20T10:39:43;17.10;;;8.20;;
75550;SDS011;65071;53.082;18.218;2022-12-20T10:44:59;13.90;;;7.30;;
75550;SDS011;65071;53.082;18.218;2022-12-20T10:47:48;19.10;;;9.10;;
75550;SDS011;65071;53.082;18.218;2022-12-20T10:50:18;17.30;;;7.80;;
75550;SDS011;65071;53.082;18.218;2022-12-20T10:55:38;23.60;;;10.80;;
75550;SDS011;65071;53.082;18.218;2022-12-20T11:01:02;20.60;;;9.60;;
75550;SDS011;65071;53.082;18.218;2022-12-20T11:03:48;13.80;;;6.60;;
75550;SDS011;65071;53.082;18.218;2022-12-20T11:06:50;16.60;;;8.80;;
75550;SDS011;65071;53.082;18.218;2022-12-20T11:11:55;20.60;;;9.30;;
75550;SDS011;65071;53.082;18.218;2022-12-20T11:14:25;13.40;;;5.60;;
75550;SDS011;65071;53.082;18.218;2022-12-20T11:16:53;20.80;;;10.00;;
75550;SDS011;65071;53.082;18.218;2022-12-20T11:27:36;22.60;;;10.50;;
75550;SDS011;65071;53.082;18.218;2022-12-20T11:30:17;19.70;;;9.20;;
75550;SDS011;65071;53.082;18.218;2022-12-20T11:35:44;17.10;;;7.40;;
75550;SDS011;65071;53.082;18.218;2022-12-20T11:41:09;20.30;;;10.60;;
75550;SDS011;65071;53.082;18.218;2022-12-20T11:43:49;22.30;;;10.00;;
75550;SDS011;65071;53.082;18.218;2022-12-20T11:52:15;17.40;;;7.70;;
75550;SDS011;65071;53.082;18.218;2022-12-20T11:55:02;21.30;;;10.10;;
75550;SDS011;65071;53.082;18.218;2022-12-20T11:57:34;21.50;;;8.90;;
75550;SDS011;65071;53.082;18.218;2022-12-20T12:00:13;21.80;;;10.20;;
75550;SDS011;65071;53.082;18.218;2022-12-20T12:02:46;28.40;;;12.30;;
75550;SDS011;65071;53.082;18.218;2022-12-20T12:05:27;16.70;;;8.10;;
75550;SDS011;65071;53.082;18.218;2022-12-20T12:08:00;19.80;;;8.30;;
75550;SDS011;65071;53.082;18.218;2022-12-20T12:10:33;13.60;;;7.00;;
75550;SDS011;65071;53.082;18.218;2022-12-20T12:13:05;19.20;;;9.00;;
75550;SDS011;65071;53.082;18.218;2022-12-20T12:15:47;19.50;;;8.80;;
75550;SDS011;65071;53.082;18.218;2022-12-20T12:18:35;16.80;;;8.20;;
75550;SDS011;65071;53.082;18.218;2022-12-20T12:26:23;19.30;;;9.10;;
75550;SDS011;65071;53.082;18.218;2022-12-20T12:28:54;23.20;;;11.70;;
75550;SDS011;65071;53.082;18.218;2022-12-20T12:31:28;19.20;;;8.20;;
75550;SDS011;65071;53.082;18.218;2022-12-20T12:37:01;23.90;;;11.00;;
75550;SDS011;65071;53.082;18.218;2022-12-20T12:43:06;20.30;;;9.70;;
75550;SDS011;65071;53.082;18.218;2022-12-20T12:45:47;15.60;;;7.20;;
75550;SDS011;65071;53.082;18.218;2022-12-20T12:48:34;25.60;;;11.40;;
75550;SDS011;65071;53.082;18.218;2022-12-20T12:51:05;19.30;;;9.40;;
75550;SDS011;65071;53.082;18.218;2022-12-20T12:56:28;21.10;;;10.20;;
75550;SDS011;65071;53.082;18.218;2022-12-20T13:09:21;21.20;;;9.10;;
75550;SDS011;65071;53.082;18.218;2022-12-20T13:17:49;21.40;;;9.60;;
75550;SDS011;65071;53.082;18.218;2022-12-20T13:41:33;25.50;;;11.70;;
75550;SDS011;65071;53.082;18.218;2022-12-20T13:44:08;21.60;;;9.90;;
75550;SDS011;65071;53.082;18.218;2022-12-20T13:49:14;20.50;;;10.20;;
75550;SDS011;65071;53.082;18.218;2022-12-20T13:51:49;31.20;;;12.90;;
75550;SDS011;65071;53.082;18.218;2022-12-20T13:54:32;23.70;;;11.10;;
75550;SDS011;65071;53.082;18.218;2022-12-20T13:57:00;20.20;;;10.20;;
75550;SDS011;65071;53.082;18.218;2022-12-20T13:59:29;27.50;;;12.30;;
75550;SDS011;65071;53.082;18.218;2022-12-20T14:02:02;23.40;;;10.40;;
75550;SDS011;65071;53.082;18.218;2022-12-20T14:04:39;23.60;;;11.10;;
75550;SDS011;65071;53.082;18.218;2022-12-20T14:07:11;28.70;;;12.80;;
75550;SDS011;65071;53.082;18.218;2022-12-20T14:09:43;27.30;;;11.20;;
75550;SDS011;65071;53.082;18.218;2022-12-20T14:12:12;24.20;;;11.10;;
75550;SDS011;65071;53.082;18.218;2022-12-20T14:14:43;26.40;;;11.40;;
75550;SDS011;65071;53.082;18.218;2022-12-20T14:19:41;22.70;;;10.60;;
75550;SDS011;65071;53.082;18.218;2022-12-20T14:22:09;23.00;;;9.20;;
75550;SDS011;65071;53.082;18.218;2022-12-20T14:24:38;26.40;;;11.50;;
75550;SDS011;65071;53.082;18.218;2022-12-20T14:27:08;20.70;;;9.10;;
75550;SDS011;65071;53.082;18.218;2022-12-20T14:29:38;23.00;;;10.70;;
75550;SDS011;65071;53.082;18.218;2022-12-20T14:32:05;20.70;;;9.00;;
75550;SDS011;65071;53.082;18.218;2022-12-20T14:34:32;23.10;;;10.20;;
75550;SDS011;65071;53.082;18.218;2022-12-20T14:37:25;22.00;;;10.60;;
75550;SDS011;65071;53.082;18.218;2022-12-20T14:42:35;27.30;;;11.60;;
75550;SDS011;65071;53.082;18.218;2022-12-20T14:45:04;24.30;;;10.40;;
75550;SDS011;65071;53.082;18.218;2022-12-20T14:47:31;21.60;;;9.60;;
75550;SDS011;65071;53.082;18.218;2022-12-20T14:49:59;26.80;;;11.70;;
75550;SDS011;65071;53.082;18.218;2022-12-20T14:54:58;21.30;;;9.00;;
75550;SDS011;65071;53.082;18.218;2022-12-20T15:10:50;22.30;;;10.00;;
75550;SDS011;65071;53.082;18.218;2022-12-20T15:13:25;25.00;;;10.90;;
75550;SDS011;65071;53.082;18.218;2022-12-20T15:16:12;24.80;;;10.90;;
75550;SDS011;65071;53.082;18.218;2022-12-20T15:18:41;24.80;;;10.30;;
75550;SDS011;65071;53.082;18.218;2022-12-20T15:21:14;27.60;;;11.80;;
75550;SDS011;65071;53.082;18.218;2022-12-20T15:23:56;27.70;;;13.50;;
75550;SDS011;65071;53.082;18.218;2022-12-20T15:28:53;25.70;;;10.40;;
75550;SDS011;65071;53.082;18.218;2022-12-20T15:31:21;24.80;;;10.90;;
75550;SDS011;65071;53.082;18.218;2022-12-20T15:33:49;28.40;;;12.10;;
75550;SDS011;65071;53.082;18.218;2022-12-20T15:36:18;27.50;;;11.50;;
75550;SDS011;65071;53.082;18.218;2022-12-20T15:38:46;20.30;;;8.80;;
75550;SDS011;65071;53.082;18.218;2022-12-20T15:41:23;23.60;;;11.40;;
75550;SDS011;65071;53.082;18.218;2022-12-20T15:46:23;20.30;;;9.70;;
75550;SDS011;65071;53.082;18.218;2022-12-20T15:48:49;29.30;;;13.20;;
75550;SDS011;65071;53.082;18.218;2022-12-20T15:51:17;26.70;;;12.30;;
75550;SDS011;65071;53.082;18.218;2022-12-20T15:53:53;28.00;;;12.60;;
75550;SDS011;65071;53.082;18.218;2022-12-20T15:56:20;29.80;;;13.20;;
75550;SDS011;65071;53.082;18.218;2022-12-20T15:58:48;23.30;;;10.60;;
75550;SDS011;65071;53.082;18.218;2022-12-20T16:03:56;27.40;;;13.20;;
75550;SDS011;65071;53.082;18.218;2022-12-20T16:06:23;31.20;;;13.30;;
75550;SDS011;65071;53.082;18.218;2022-12-20T16:08:49;27.50;;;11.70;;
75550;SDS011;65071;53.082;18.218;2022-12-20T16:11:23;33.10;;;13.00;;
75550;SDS011;65071;53.082;18.218;2022-12-20T16:13:55;27.80;;;11.40;;
75550;SDS011;65071;53.082;18.218;2022-12-20T16:16:24;25.40;;;11.40;;
75550;SDS011;65071;53.082;18.218;2022-12-20T16:18:55;28.00;;;11.30;;
75550;SDS011;65071;53.082;18.218;2022-12-20T16:21:28;26.30;;;11.60;;
75550;SDS011;65071;53.082;18.218;2022-12-20T16:23:57;28.00;;;11.50;;
75550;SDS011;65071;53.082;18.218;2022-12-20T16:26:24;29.70;;;12.50;;
75550;SDS011;65071;53.082;18.218;2022-12-20T16:28:52;23.80;;;10.90;;
75550;SDS011;65071;53.082;18.218;2022-12-20T16:31:28;23.80;;;10.30;;
75550;SDS011;65071;53.082;18.218;2022-12-20T16:33:57;37.00;;;15.20;;
75550;SDS011;65071;53.082;18.218;2022-12-20T16:36:24;26.40;;;12.40;;
75550;SDS011;65071;53.082;18.218;2022-12-20T16:38:52;26.50;;;10.90;;
75550;SDS011;65071;53.082;18.218;2022-12-20T16:41:20;25.90;;;11.30;;
75550;SDS011;65071;53.082;18.218;2022-12-20T16:43:49;24.90;;;11.20;;
75550;SDS011;65071;53.082;18.218;2022-12-20T16:46:18;29.60;;;12.30;;
75550;SDS011;65071;53.082;18.218;2022-12-20T16:48:45;24.50;;;10.80;;
75550;SDS011;65071;53.082;18.218;2022-12-20T16:54:00;29.00;;;13.30;;
75550;SDS011;65071;53.082;18.218;2022-12-20T16:56:28;32.40;;;14.10;;
75550;SDS011;65071;53.082;18.218;2022-12-20T16:58:56;32.70;;;13.00;;
75550;SDS011;65071;53.082;18.218;2022-12-20T17:01:27;27.00;;;12.80;;
75550;SDS011;65071;53.082;18.218;2022-12-20T17:03:57;30.90;;;12.90;;
75550;SDS011;65071;53.082;18.218;2022-12-20T17:06:23;31.10;;;13.00;;
75550;SDS011;65071;53.082;18.218;2022-12-20T17:08:50;31.00;;;14.00;;
75550;SDS011;65071;53.082;18.218;2022-12-20T17:11:21;27.80;;;11.70;;